Time;durP1;ratioP1;P1;durP2;ratioP2;P2;SDS_P1;SDS_P2;PMS_P1;PMS_P2;Temp;Humidity;BMP_temperature;BMP_pressure;BME280_temperature;BME280_humidity;BME280_pressure;Samples;Min_cycle;Max_cycle;Signal;HPM_P1;HPM_P2
2022/03/13 00:00:44;;;;;;;1.52;1.40;;;20.10;31.50;;;;;;5115043;28;20051;-79
2022/03/13 00:03:10;;;;;;;1.40;1.30;;;20.10;31.50;;;;;;5133231;28;20058;-79
2022/03/13 00:05:39;;;;;;;1.30;1.20;;;20.20;31.60;;;;;;5133200;28;20063;-79
2022/03/13 00:08:27;;;;;;;1.33;1.20;;;20.10;31.50;;;;;;5133097;28;20112;-79
2022/03/13 00:10:58;;;;;;;1.50;1.38;;;20.10;31.50;;;;;;5116236;28;20112;-79
2022/03/13 00:13:35;;;;;;;1.30;1.10;;;20.10;31.50;;;;;;5101657;28;20130;-79
2022/03/13 00:16:09;;;;;;;1.17;1.13;;;20.10;31.50;;;;;;5136700;28;20055;-79
2022/03/13 00:18:36;;;;;;;1.95;1.45;;;20.20;31.60;;;;;;5136648;28;20521;-79
2022/03/13 00:21:03;;;;;;;1.55;1.45;;;20.10;31.60;;;;;;5136788;28;20529;-79
2022/03/13 00:23:34;;;;;;;1.50;1.40;;;20.10;31.50;;;;;;5136531;28;20162;-79
2022/03/13 00:26:01;;;;;;;1.20;1.10;;;20.10;31.50;;;;;;5136970;28;20059;-79
2022/03/13 00:28:26;;;;;;;1.30;1.20;;;20.20;31.60;;;;;;5116988;28;20047;-79
2022/03/13 00:30:52;;;;;;;1.60;1.50;;;20.20;31.60;;;;;;5099261;28;20052;-79
2022/03/13 00:33:18;;;;;;;1.73;1.48;;;20.20;31.60;;;;;;5136447;28;20054;-79
2022/03/13 00:35:44;;;;;;;1.40;1.30;;;20.20;31.60;;;;;;5136790;28;20055;-79
2022/03/13 00:38:09;;;;;;;1.70;1.40;;;20.20;31.60;;;;;;5136392;28;20402;-79
2022/03/13 00:40:36;;;;;;;1.70;1.45;;;20.20;31.60;;;;;;5136361;28;20087;-79
2022/03/13 00:43:02;;;;;;;1.33;1.23;;;20.20;31.60;;;;;;5117878;28;20092;-79
2022/03/13 00:45:29;;;;;;;1.45;1.35;;;20.20;31.60;;;;;;5136689;28;20054;-79
2022/03/13 00:47:55;;;;;;;1.35;1.20;;;20.20;31.60;;;;;;5136433;28;20047;-79
2022/03/13 00:50:20;;;;;;;1.63;1.20;;;20.20;31.60;;;;;;5136239;28;20054;-79
2022/03/13 00:52:46;;;;;;;1.45;1.27;;;20.20;31.50;;;;;;5136284;28;20058;-79
2022/03/13 00:55:12;;;;;;;1.40;1.30;;;20.20;31.60;;;;;;5136254;28;20551;-79
2022/03/13 00:57:38;;;;;;;1.60;1.13;;;20.20;31.60;;;;;;5136202;28;20490;-79
2022/03/13 01:00:05;;;;;;;1.77;1.60;;;20.20;31.60;;;;;;5117867;28;20072;-79
2022/03/13 01:02:32;;;;;;;1.40;1.30;;;20.20;31.60;;;;;;5136031;28;20047;-79
2022/03/13 01:05:00;;;;;;;1.50;1.40;;;20.20;31.60;;;;;;5136109;28;20050;-79
2022/03/13 01:07:25;;;;;;;1.25;1.15;;;20.20;31.60;;;;;;5100499;28;20054;-79
2022/03/13 01:09:51;;;;;;;1.88;1.63;;;20.20;31.60;;;;;;5135614;28;20051;-79
2022/03/13 01:12:16;;;;;;;1.52;1.42;;;20.20;31.50;;;;;;5136166;28;20498;-79
2022/03/13 01:14:45;;;;;;;1.30;1.20;;;20.20;31.50;;;;;;5135765;28;20049;-79
2022/03/13 01:17:11;;;;;;;1.60;1.48;;;20.20;31.60;;;;;;5116877;28;20108;-79
2022/03/13 01:19:37;;;;;;;1.20;1.08;;;20.20;31.60;;;;;;5135265;28;20062;-79
2022/03/13 01:22:03;;;;;;;1.70;1.50;;;20.20;31.50;;;;;;5114511;28;20052;-79
2022/03/13 01:24:43;;;;;;;1.60;1.50;;;20.20;31.60;;;;;;5135407;28;20133;-79
2022/03/13 01:27:10;;;;;;;1.52;1.42;;;20.20;31.60;;;;;;5133113;28;20058;-79
2022/03/13 01:29:36;;;;;;;1.35;1.25;;;20.20;31.60;;;;;;5115198;28;20139;-79
2022/03/13 01:32:02;;;;;;;1.40;1.30;;;20.20;31.50;;;;;;5135578;28;20066;-79
2022/03/13 01:34:36;;;;;;;1.55;1.45;;;20.20;31.60;;;;;;5117153;28;20059;-79
2022/03/13 01:37:03;;;;;;;1.40;1.30;;;20.20;31.60;;;;;;5116910;28;20426;-78
2022/03/13 01:39:29;;;;;;;1.15;1.05;;;20.20;31.60;;;;;;5135318;28;20464;-79
2022/03/13 01:41:56;;;;;;;1.42;1.33;;;20.20;31.50;;;;;;5135342;28;20051;-79
2022/03/13 01:44:22;;;;;;;1.40;1.27;;;20.20;31.50;;;;;;5135390;28;20101;-79
2022/03/13 01:46:48;;;;;;;1.40;1.30;;;20.10;31.50;;;;;;5099679;28;20089;-79
2022/03/13 01:49:16;;;;;;;1.40;1.30;;;20.20;31.60;;;;;;5115685;28;20526;-79
2022/03/13 01:51:42;;;;;;;1.40;1.30;;;20.20;31.50;;;;;;5135564;28;20079;-79
2022/03/13 01:54:10;;;;;;;1.40;1.30;;;20.20;31.60;;;;;;5135313;28;20086;-79
2022/03/13 01:56:37;;;;;;;1.77;1.52;;;20.20;31.50;;;;;;5135169;28;20055;-79
2022/03/13 01:59:06;;;;;;;1.30;1.20;;;20.20;31.50;;;;;;5116959;28;20051;-79
2022/03/13 02:01:32;;;;;;;1.73;1.60;;;20.20;31.50;;;;;;5135043;28;20051;-79
2022/03/13 02:03:58;;;;;;;1.13;1.10;;;20.20;31.50;;;;;;5135369;28;20099;-79
2022/03/13 02:06:24;;;;;;;1.65;1.20;;;20.20;31.50;;;;;;5135100;28;20133;-79
2022/03/13 02:08:51;;;;;;;1.30;1.20;;;20.20;31.50;;;;;;5134815;28;20155;-79
2022/03/13 02:11:22;;;;;;;1.52;1.30;;;20.20;31.50;;;;;;5134996;28;20047;-79
2022/03/13 02:13:50;;;;;;;1.50;1.38;;;20.20;31.60;;;;;;5135568;28;20518;-79
2022/03/13 02:16:17;;;;;;;1.80;1.60;;;20.20;31.50;;;;;;5116508;28;20078;-79
2022/03/13 02:18:48;;;;;;;1.23;1.13;;;20.20;31.50;;;;;;5116444;28;20051;-79
2022/03/13 02:21:16;;;;;;;1.40;1.20;;;20.20;31.50;;;;;;5134935;28;20123;-79
2022/03/13 02:23:43;;;;;;;1.40;1.30;;;20.20;31.50;;;;;;5134695;28;20047;-79
2022/03/13 02:26:09;;;;;;;1.85;1.42;;;20.20;31.50;;;;;;5116312;28;20108;-79
2022/03/13 02:28:49;;;;;;;1.20;1.10;;;20.20;31.50;;;;;;5114978;28;20229;-79
2022/03/13 02:31:32;;;;;;;1.55;1.40;;;20.20;31.50;;;;;;5134870;28;20514;-79
2022/03/13 02:33:58;;;;;;;1.30;1.20;;;20.20;31.50;;;;;;5116311;28;20059;-79
2022/03/13 02:36:27;;;;;;;1.40;1.30;;;20.20;31.50;;;;;;5134296;28;20054;-78
2022/03/13 02:38:53;;;;;;;1.88;1.35;;;20.20;31.50;;;;;;5134437;28;20051;-79
2022/03/13 02:41:19;;;;;;;1.30;1.20;;;20.20;31.50;;;;;;5134423;28;20100;-79
2022/03/13 02:43:44;;;;;;;1.73;1.58;;;20.20;32.10;;;;;;5134456;28;20051;-79
2022/03/13 02:46:19;;;;;;;1.50;1.40;;;20.20;31.50;;;;;;5134401;28;20065;-79
2022/03/13 02:48:45;;;;;;;1.67;1.58;;;20.20;31.50;;;;;;5134510;28;20114;-79
2022/03/13 02:51:11;;;;;;;1.67;1.45;;;20.20;31.50;;;;;;5134670;28;20066;-79
2022/03/13 02:53:38;;;;;;;1.70;1.30;;;20.20;31.50;;;;;;5134265;28;20437;-79
2022/03/13 02:56:06;;;;;;;1.45;1.35;;;20.20;31.50;;;;;;5116061;28;20188;-79
2022/03/13 02:58:35;;;;;;;1.52;1.30;;;20.20;31.50;;;;;;5113794;28;20058;-79
2022/03/13 03:01:01;;;;;;;1.55;1.45;;;20.20;31.50;;;;;;5115839;28;20059;-79
2022/03/13 03:03:27;;;;;;;1.35;1.25;;;20.20;31.50;;;;;;5134104;28;20595;-79
2022/03/13 03:05:53;;;;;;;1.30;1.20;;;20.20;31.50;;;;;;5134155;28;20410;-79
2022/03/13 03:08:19;;;;;;;1.20;1.10;;;20.20;31.50;;;;;;5133995;28;20546;-79
2022/03/13 03:10:45;;;;;;;1.40;1.30;;;20.20;31.60;;;;;;5115595;28;20051;-79
2022/03/13 03:13:13;;;;;;;1.20;1.10;;;20.20;31.50;;;;;;5134024;28;20046;-79
2022/03/13 03:15:39;;;;;;;1.60;1.38;;;20.20;31.50;;;;;;5133904;28;20059;-79
2022/03/13 03:18:07;;;;;;;1.40;1.30;;;20.20;31.50;;;;;;5133723;28;20055;-79
2022/03/13 03:20:34;;;;;;;1.33;1.23;;;20.20;31.50;;;;;;5133887;28;20058;-79
2022/03/13 03:23:00;;;;;;;1.50;1.40;;;20.20;31.50;;;;;;5115256;28;20057;-79
2022/03/13 03:25:27;;;;;;;1.42;1.33;;;20.20;31.50;;;;;;5133810;28;20099;-79
2022/03/13 03:27:57;;;;;;;1.65;1.25;;;20.20;31.50;;;;;;5133762;28;20138;-79
2022/03/13 03:30:25;;;;;;;1.40;1.30;;;20.20;31.50;;;;;;5115340;28;20051;-79
2022/03/13 03:32:52;;;;;;;1.67;1.58;;;20.20;31.50;;;;;;5133697;28;20060;-79
2022/03/13 03:35:19;;;;;;;1.60;1.50;;;20.20;31.50;;;;;;5133711;28;20043;-79
2022/03/13 03:37:51;;;;;;;1.27;1.17;;;20.20;31.50;;;;;;5133618;28;20509;-79
2022/03/13 03:40:20;;;;;;;1.88;1.38;;;20.20;31.50;;;;;;5133988;28;20057;-79
2022/03/13 03:42:45;;;;;;;1.23;1.13;;;20.20;31.50;;;;;;5114994;28;20938;-79
2022/03/13 03:45:13;;;;;;;1.30;1.20;;;20.20;31.50;;;;;;5133018;27;20156;-79
2022/03/13 03:47:39;;;;;;;1.65;1.40;;;20.20;31.50;;;;;;5133429;28;20047;-79
2022/03/13 03:50:08;;;;;;;1.20;1.10;;;20.20;31.50;;;;;;5113170;28;20514;-79
2022/03/13 03:52:34;;;;;;;1.30;1.20;;;20.20;31.50;;;;;;5133451;28;20426;-79
2022/03/13 03:55:01;;;;;;;1.20;1.10;;;20.20;31.50;;;;;;5133450;28;20112;-79
2022/03/13 03:57:27;;;;;;;1.50;1.40;;;20.20;31.50;;;;;;5133287;28;20055;-79
2022/03/13 03:59:52;;;;;;;1.25;1.10;;;20.20;31.50;;;;;;5112752;28;20408;-79
2022/03/13 04:02:18;;;;;;;1.30;1.20;;;20.20;31.50;;;;;;5133017;28;20057;-79
2022/03/13 04:04:43;;;;;;;1.60;1.50;;;20.20;31.50;;;;;;5133311;28;20051;-79
2022/03/13 04:07:09;;;;;;;1.73;1.45;;;20.20;31.50;;;;;;5133437;28;20522;-79
2022/03/13 04:09:35;;;;;;;1.48;1.35;;;20.20;31.50;;;;;;5113952;28;20392;-79
2022/03/13 04:12:05;;;;;;;1.98;1.38;;;20.20;31.50;;;;;;5133113;28;20123;-79
2022/03/13 04:14:30;;;;;;;1.30;1.20;;;20.20;31.50;;;;;;5132860;28;20051;-79
2022/03/13 04:16:56;;;;;;;1.30;1.20;;;20.20;31.50;;;;;;5114568;28;20044;-79
2022/03/13 04:19:26;;;;;;;1.30;1.20;;;20.20;31.50;;;;;;5132944;28;20051;-79
2022/03/13 04:21:51;;;;;;;1.25;1.15;;;20.20;31.50;;;;;;5132969;28;20126;-79
2022/03/13 04:24:17;;;;;;;1.48;1.38;;;20.20;31.50;;;;;;5114594;28;20138;-79
2022/03/13 04:26:44;;;;;;;1.60;1.30;;;20.20;31.50;;;;;;5133019;28;20051;-79
2022/03/13 04:29:09;;;;;;;1.48;1.30;;;20.20;31.50;;;;;;5132850;28;20055;-79
2022/03/13 04:31:37;;;;;;;1.38;1.27;;;20.20;31.50;;;;;;5132976;28;20108;-79
2022/03/13 04:34:04;;;;;;;2.08;1.23;;;20.20;31.50;;;;;;5133313;28;20379;-79
2022/03/13 04:36:32;;;;;;;1.25;1.15;;;20.20;31.50;;;;;;5132907;28;20047;-79
2022/03/13 04:38:58;;;;;;;1.30;1.20;;;20.20;31.50;;;;;;5132850;28;20130;-79
2022/03/13 04:41:24;;;;;;;1.30;1.20;;;20.20;31.50;;;;;;5132803;28;20051;-79
2022/03/13 04:43:50;;;;;;;1.30;1.20;;;20.20;31.50;;;;;;5114407;28;20103;-79
2022/03/13 04:46:15;;;;;;;1.20;1.10;;;20.20;31.50;;;;;;5114231;28;20055;-79
2022/03/13 04:48:41;;;;;;;1.60;1.50;;;20.20;31.40;;;;;;5132696;28;20055;-79
2022/03/13 04:51:06;;;;;;;1.40;1.30;;;20.20;31.50;;;;;;5133117;28;20059;-79
2022/03/13 04:53:32;;;;;;;1.50;1.40;;;20.20;31.50;;;;;;5132689;28;20167;-79
2022/03/13 04:55:58;;;;;;;1.65;1.50;;;20.20;31.50;;;;;;5132611;28;20095;-79
2022/03/13 04:58:24;;;;;;;1.40;1.30;;;20.20;31.50;;;;;;5134357;27;20055;-79
2022/03/13 05:00:53;;;;;;;1.83;1.45;;;20.20;31.50;;;;;;5136109;28;20051;-79
2022/03/13 05:03:18;;;;;;;1.40;1.30;;;20.20;31.50;;;;;;5098335;28;20047;-79
2022/03/13 05:05:44;;;;;;;1.65;1.35;;;20.20;31.50;;;;;;5116843;28;20859;-79
2022/03/13 05:08:11;;;;;;;1.52;1.30;;;20.20;31.50;;;;;;5135865;28;20055;-79
2022/03/13 05:10:37;;;;;;;1.40;1.30;;;20.20;31.50;;;;;;5136309;28;20133;-79
2022/03/13 05:13:04;;;;;;;1.25;1.15;;;20.20;31.40;;;;;;5136280;28;20108;-79
2022/03/13 05:15:30;;;;;;;1.17;1.08;;;20.20;31.40;;;;;;5117328;28;20188;-79
2022/03/13 05:17:56;;;;;;;1.40;1.20;;;20.20;31.50;;;;;;5135764;28;20142;-79
2022/03/13 05:20:21;;;;;;;1.20;1.10;;;20.20;31.50;;;;;;5100438;28;20050;-79
2022/03/13 05:22:47;;;;;;;1.35;1.25;;;20.20;31.50;;;;;;5117171;28;20479;-79
2022/03/13 05:25:14;;;;;;;1.40;1.30;;;20.20;31.50;;;;;;5117774;28;20108;-79
2022/03/13 05:27:41;;;;;;;1.42;1.30;;;20.20;31.50;;;;;;5135667;28;20051;-79
2022/03/13 05:30:09;;;;;;;1.55;1.40;;;20.20;31.40;;;;;;5117179;28;20086;-79
2022/03/13 05:32:35;;;;;;;1.05;1.00;;;20.20;31.40;;;;;;5117470;28;20505;-79
2022/03/13 05:35:03;;;;;;;1.50;1.27;;;20.20;31.50;;;;;;5117157;28;20059;-79
2022/03/13 05:37:28;;;;;;;1.10;1.00;;;20.20;31.40;;;;;;5135476;28;20051;-79
2022/03/13 05:39:54;;;;;;;1.48;1.15;;;20.20;31.50;;;;;;5135601;28;20043;-79
2022/03/13 05:42:24;;;;;;;1.48;1.30;;;20.20;31.50;;;;;;5116231;28;20066;-79
2022/03/13 05:44:53;;;;;;;1.40;1.30;;;20.20;31.40;;;;;;5135691;28;20534;-79
2022/03/13 05:47:19;;;;;;;1.48;1.20;;;20.20;31.40;;;;;;5135167;28;20125;-80
2022/03/13 05:49:46;;;;;;;1.48;1.38;;;20.20;31.40;;;;;;5135468;28;20068;-79
2022/03/13 05:52:13;;;;;;;1.55;1.45;;;20.20;31.50;;;;;;5135157;28;20489;-79
2022/03/13 05:54:39;;;;;;;1.30;1.20;;;20.20;31.40;;;;;;5123643;28;20517;-79
2022/03/13 05:57:06;;;;;;;1.15;1.05;;;20.30;31.40;;;;;;5114972;28;20074;-79
2022/03/13 05:59:33;;;;;;;1.40;1.30;;;20.30;31.40;;;;;;5114454;28;20079;-79
2022/03/13 06:02:01;;;;;;;1.35;1.25;;;20.30;31.30;;;;;;5114398;28;20063;-79
2022/03/13 06:04:26;;;;;;;1.50;1.40;;;20.40;31.30;;;;;;5114803;28;20060;-79
2022/03/13 06:06:52;;;;;;;1.30;1.20;;;20.40;31.20;;;;;;5114580;28;20058;-79
2022/03/13 06:09:17;;;;;;;1.50;1.40;;;20.50;31.20;;;;;;5113847;28;20454;-79
2022/03/13 06:11:43;;;;;;;1.60;1.40;;;20.50;31.10;;;;;;5114779;28;20056;-79
2022/03/13 06:14:08;;;;;;;1.45;1.35;;;20.60;31.10;;;;;;5114440;28;20052;-79
2022/03/13 06:16:35;;;;;;;1.60;1.50;;;20.60;31.00;;;;;;5114972;28;20077;-79
2022/03/13 06:19:00;;;;;;;1.35;1.25;;;20.70;30.90;;;;;;5114222;28;20056;-79
2022/03/13 06:21:26;;;;;;;1.30;1.20;;;20.70;30.80;;;;;;5095875;28;20051;-78
2022/03/13 06:23:51;;;;;;;1.42;1.30;;;20.80;30.80;;;;;;5114790;28;20131;-78
2022/03/13 06:26:17;;;;;;;1.52;1.17;;;20.80;30.80;;;;;;5114257;28;20048;-78
2022/03/13 06:28:42;;;;;;;1.33;1.23;;;20.90;30.70;;;;;;5114476;28;20052;-78
2022/03/13 06:31:12;;;;;;;1.63;1.52;;;20.90;30.60;;;;;;5096788;28;20185;-78
2022/03/13 06:33:38;;;;;;;1.50;1.40;;;21.00;30.60;;;;;;5095904;28;20126;-78
2022/03/13 06:36:04;;;;;;;1.48;1.38;;;21.00;30.50;;;;;;5114062;28;20403;-79
2022/03/13 06:38:29;;;;;;;1.67;1.45;;;21.10;30.50;;;;;;5114039;28;20220;-79
2022/03/13 06:40:55;;;;;;;1.75;1.63;;;21.10;30.40;;;;;;5095992;28;20138;-79
2022/03/13 06:43:21;;;;;;;1.50;1.40;;;21.20;30.30;;;;;;5095624;28;20137;-79
2022/03/13 06:45:46;;;;;;;1.60;1.40;;;21.20;30.20;;;;;;5095436;28;20403;-79
2022/03/13 06:48:14;;;;;;;1.40;1.30;;;21.30;30.20;;;;;;5114296;28;20052;-79
2022/03/13 06:50:39;;;;;;;1.98;1.60;;;21.30;30.20;;;;;;5077232;28;20059;-79
2022/03/13 06:53:05;;;;;;;1.50;1.27;;;21.40;30.20;;;;;;5113818;28;20047;-79
2022/03/13 06:55:31;;;;;;;1.63;1.35;;;21.40;30.10;;;;;;5114125;28;20052;-79
2022/03/13 06:57:56;;;;;;;1.90;1.60;;;21.40;30.00;;;;;;5094030;28;20529;-79
2022/03/13 07:00:22;;;;;;;1.42;1.33;;;21.50;30.00;;;;;;5095584;28;20047;-78
2022/03/13 07:02:49;;;;;;;1.40;1.30;;;21.50;30.00;;;;;;5113647;28;20055;-79
2022/03/13 07:05:15;;;;;;;1.40;1.30;;;21.50;30.00;;;;;;5094573;28;20415;-79
2022/03/13 07:07:42;;;;;;;1.77;1.50;;;21.60;30.00;;;;;;5113608;28;20051;-79
2022/03/13 07:10:12;;;;;;;1.70;1.60;;;21.60;29.90;;;;;;5093463;28;20068;-79
2022/03/13 07:12:43;;;;;;;1.42;1.33;;;21.60;29.90;;;;;;5113444;28;20079;-79
2022/03/13 07:15:12;;;;;;;1.80;1.40;;;21.70;29.90;;;;;;5095302;28;20514;-79
2022/03/13 07:17:39;;;;;;;1.40;1.30;;;21.70;29.90;;;;;;5113256;28;20047;-79
2022/03/13 07:20:06;;;;;;;1.60;1.48;;;21.70;29.90;;;;;;5112568;28;20067;-79
2022/03/13 07:22:31;;;;;;;1.52;1.42;;;21.80;29.80;;;;;;5113105;28;20207;-79
2022/03/13 07:24:57;;;;;;;1.35;1.25;;;21.80;29.80;;;;;;5113399;28;20093;-79
2022/03/13 07:27:22;;;;;;;1.23;1.13;;;21.90;29.80;;;;;;5094903;28;20051;-79
2022/03/13 07:29:50;;;;;;;1.50;1.40;;;21.80;29.70;;;;;;5113067;28;20055;-79
2022/03/13 07:32:15;;;;;;;1.35;1.25;;;21.90;29.70;;;;;;5113147;28;20052;-79
2022/03/13 07:34:41;;;;;;;1.60;1.50;;;22.00;29.70;;;;;;5113368;28;20380;-79
2022/03/13 07:37:10;;;;;;;1.50;1.40;;;22.00;29.70;;;;;;5112872;28;20058;-79
2022/03/13 07:39:37;;;;;;;1.60;1.50;;;21.90;29.60;;;;;;5112905;28;20079;-79
2022/03/13 07:42:03;;;;;;;1.40;1.30;;;22.00;29.60;;;;;;5112864;28;20054;-79
2022/03/13 07:44:29;;;;;;;1.30;1.20;;;22.00;29.60;;;;;;5094748;28;20058;-79
2022/03/13 07:46:54;;;;;;;1.50;1.40;;;22.00;29.60;;;;;;5094746;28;20064;-79
2022/03/13 07:49:21;;;;;;;1.30;1.20;;;22.00;29.60;;;;;;5112989;28;20117;-79
2022/03/13 07:51:47;;;;;;;1.50;1.40;;;22.00;29.60;;;;;;5094764;28;20126;-79
2022/03/13 07:54:14;;;;;;;1.52;1.42;;;22.00;29.60;;;;;;5113530;28;20048;-79
2022/03/13 07:56:39;;;;;;;1.52;1.40;;;22.00;29.60;;;;;;5112898;28;20538;-79
2022/03/13 07:59:05;;;;;;;1.40;1.23;;;22.00;29.70;;;;;;5112777;28;20090;-79
2022/03/13 08:01:30;;;;;;;1.45;1.35;;;21.90;29.60;;;;;;5094911;28;20047;-79
2022/03/13 08:03:56;;;;;;;1.48;1.38;;;21.90;29.60;;;;;;5112765;28;20077;-79
2022/03/13 08:06:23;;;;;;;1.50;1.40;;;21.90;29.70;;;;;;5094751;28;20043;-79
2022/03/13 08:08:49;;;;;;;1.67;1.58;;;21.80;29.70;;;;;;5094168;28;20053;-79
2022/03/13 08:11:15;;;;;;;2.15;1.65;;;21.80;30.10;;;;;;5113339;28;20063;-79
2022/03/13 08:13:41;;;;;;;1.42;1.33;;;21.80;29.80;;;;;;5112685;28;20055;-79
2022/03/13 08:16:06;;;;;;;1.40;1.30;;;21.80;29.80;;;;;;5112659;28;20092;-79
2022/03/13 08:18:37;;;;;;;1.60;1.50;;;21.70;29.80;;;;;;5094135;28;20108;-79
2022/03/13 08:21:02;;;;;;;1.92;1.73;;;21.70;29.90;;;;;;5094685;28;20083;-79
2022/03/13 08:23:28;;;;;;;1.50;1.40;;;21.60;29.80;;;;;;5112727;28;20083;-79
2022/03/13 08:25:54;;;;;;;1.63;1.40;;;21.60;29.90;;;;;;5112660;28;20054;-78
2022/03/13 08:28:19;;;;;;;1.60;1.50;;;21.60;29.90;;;;;;5112361;28;20051;-79
2022/03/13 08:30:45;;;;;;;1.67;1.40;;;21.60;30.00;;;;;;5112493;28;20047;-79
2022/03/13 08:33:10;;;;;;;1.65;1.38;;;21.50;30.00;;;;;;5097059;28;20100;-79
2022/03/13 08:35:36;;;;;;;1.65;1.55;;;21.50;30.00;;;;;;5097783;28;20104;-79
2022/03/13 08:38:01;;;;;;;1.63;1.45;;;21.50;30.00;;;;;;5115939;28;20101;-79
2022/03/13 08:40:29;;;;;;;1.50;1.40;;;21.40;30.00;;;;;;5115921;28;20083;-79
2022/03/13 08:42:55;;;;;;;1.80;1.70;;;21.40;30.60;;;;;;5116054;28;20047;-79
2022/03/13 08:45:21;;;;;;;2.00;1.80;;;21.30;30.00;;;;;;5115913;28;20055;-79
2022/03/13 08:47:47;;;;;;;1.73;1.63;;;21.30;30.10;;;;;;5097329;28;20205;-79
2022/03/13 08:50:16;;;;;;;1.70;1.58;;;21.30;30.10;;;;;;5116125;28;20047;-79
2022/03/13 08:52:42;;;;;;;1.67;1.58;;;21.30;30.20;;;;;;5115789;28;20441;-79
2022/03/13 08:55:13;;;;;;;1.50;1.40;;;21.30;30.20;;;;;;5115733;28;20102;-79
2022/03/13 08:57:41;;;;;;;2.00;1.80;;;21.20;30.20;;;;;;5097111;28;20411;-79
2022/03/13 09:00:10;;;;;;;1.65;1.55;;;21.20;30.30;;;;;;5097166;28;20051;-79
2022/03/13 09:02:36;;;;;;;1.50;1.40;;;21.10;30.30;;;;;;5097052;28;20451;-79
2022/03/13 09:05:02;;;;;;;1.60;1.50;;;21.10;30.40;;;;;;5115443;28;20047;-79
2022/03/13 09:07:28;;;;;;;1.73;1.63;;;21.10;30.40;;;;;;5115239;28;20055;-79
2022/03/13 09:09:53;;;;;;;1.48;1.38;;;21.10;30.50;;;;;;5115574;28;20052;-79
2022/03/13 09:12:19;;;;;;;2.00;1.65;;;21.00;30.40;;;;;;5079382;28;20048;-79
2022/03/13 09:14:45;;;;;;;1.50;1.40;;;21.00;30.50;;;;;;5115536;28;20380;-79
2022/03/13 09:17:11;;;;;;;1.73;1.60;;;20.90;31.10;;;;;;5114946;28;20097;-78
2022/03/13 09:19:37;;;;;;;1.40;1.30;;;20.90;30.60;;;;;;5115162;28;20044;-79
2022/03/13 09:22:02;;;;;;;1.58;1.48;;;20.90;30.60;;;;;;5115145;28;20059;-79
2022/03/13 09:24:28;;;;;;;1.45;1.35;;;20.90;30.60;;;;;;5097021;28;20044;-79
2022/03/13 09:26:54;;;;;;;1.63;1.52;;;20.90;30.60;;;;;;5115227;28;20116;-79
2022/03/13 09:29:19;;;;;;;1.80;1.48;;;20.90;30.60;;;;;;5115763;28;20131;-79
2022/03/13 09:31:45;;;;;;;1.40;1.30;;;20.80;30.60;;;;;;5115452;28;20051;-79
2022/03/13 09:34:11;;;;;;;1.50;1.40;;;20.80;30.70;;;;;;5115073;28;20052;-79
2022/03/13 09:36:37;;;;;;;1.80;1.50;;;20.80;30.70;;;;;;5115478;28;20135;-79
2022/03/13 09:39:07;;;;;;;1.50;1.40;;;20.80;30.70;;;;;;5114809;28;20056;-79
2022/03/13 09:41:33;;;;;;;1.60;1.50;;;20.80;30.70;;;;;;5115326;28;20139;-79
2022/03/13 09:43:59;;;;;;;1.70;1.50;;;20.80;30.70;;;;;;5095722;28;20048;-79
2022/03/13 09:46:25;;;;;;;1.58;1.45;;;20.80;30.70;;;;;;5114762;28;20058;-79
2022/03/13 09:48:54;;;;;;;2.35;1.70;;;20.80;30.70;;;;;;5114645;28;20457;-79
2022/03/13 09:51:21;;;;;;;1.73;1.48;;;20.80;30.70;;;;;;5115246;28;20075;-79
2022/03/13 09:53:47;;;;;;;1.65;1.50;;;20.80;30.80;;;;;;5096179;28;20067;-79
2022/03/13 09:56:12;;;;;;;1.70;1.60;;;20.70;30.70;;;;;;5114564;28;20062;-79
2022/03/13 09:58:39;;;;;;;1.60;1.50;;;20.70;30.70;;;;;;5114610;28;20124;-79
2022/03/13 10:01:07;;;;;;;1.38;1.27;;;20.70;30.80;;;;;;5115221;28;20097;-79
2022/03/13 10:03:33;;;;;;;1.65;1.55;;;20.70;30.70;;;;;;5114520;28;20047;-79
2022/03/13 10:05:59;;;;;;;1.65;1.55;;;20.70;30.80;;;;;;5114605;28;20055;-79
2022/03/13 10:08:29;;;;;;;1.73;1.55;;;20.70;30.80;;;;;;5096285;28;20052;-79
2022/03/13 10:10:56;;;;;;;1.65;1.45;;;20.70;30.80;;;;;;5114556;28;20138;-79
2022/03/13 10:13:46;;;;;;;1.65;1.55;;;20.70;30.80;;;;;;5096199;28;20040;-79
2022/03/13 10:16:19;;;;;;;1.75;1.65;;;20.70;30.80;;;;;;5114295;28;20538;-79
2022/03/13 10:18:45;;;;;;;1.58;1.40;;;20.70;30.80;;;;;;5114524;28;20056;-79
2022/03/13 10:21:13;;;;;;;1.98;1.60;;;20.70;30.80;;;;;;5114242;28;20047;-79
2022/03/13 10:23:40;;;;;;;1.60;1.50;;;20.70;30.80;;;;;;5096047;28;20055;-79
2022/03/13 10:26:06;;;;;;;1.73;1.63;;;20.70;30.80;;;;;;5114578;28;20146;-79
2022/03/13 10:28:37;;;;;;;1.55;1.45;;;20.60;30.80;;;;;;5114237;28;20048;-79
2022/03/13 10:31:02;;;;;;;2.00;1.67;;;20.70;30.80;;;;;;5114218;28;20050;-79
2022/03/13 10:33:52;;;;;;;1.50;1.40;;;20.60;30.80;;;;;;5114313;28;20122;-79
2022/03/13 10:36:31;;;;;;;1.40;1.30;;;20.60;30.80;;;;;;5099379;28;20059;-79
2022/03/13 10:38:58;;;;;;;1.73;1.60;;;20.60;30.80;;;;;;5113949;28;20056;-80
2022/03/13 10:41:39;;;;;;;1.80;1.52;;;20.60;30.80;;;;;;5114016;28;20467;-79
2022/03/13 10:44:12;;;;;;;1.80;1.70;;;20.60;30.80;;;;;;5113944;28;20055;-80
2022/03/13 10:46:39;;;;;;;1.80;1.42;;;20.60;30.80;;;;;;5113977;28;20143;-80
2022/03/13 10:49:06;;;;;;;1.65;1.50;;;20.60;30.80;;;;;;5078401;28;20056;-80
2022/03/13 10:51:46;;;;;;;1.92;1.63;;;20.60;30.80;;;;;;5095673;28;20062;-80
2022/03/13 10:54:29;;;;;;;1.65;1.52;;;20.60;30.80;;;;;;5113967;28;20047;-80
2022/03/13 10:57:11;;;;;;;1.50;1.40;;;20.60;30.80;;;;;;5113732;28;20051;-80
2022/03/13 10:59:39;;;;;;;1.52;1.30;;;20.60;30.80;;;;;;5094770;28;20056;-79
2022/03/13 11:02:24;;;;;;;1.98;1.75;;;20.60;30.80;;;;;;5094268;28;20083;-80
2022/03/13 11:04:55;;;;;;;1.40;1.30;;;20.60;30.80;;;;;;5113335;28;20499;-80
2022/03/13 11:07:22;;;;;;;1.10;1.05;;;20.60;30.90;;;;;;5113338;28;20056;-80
2022/03/13 11:09:48;;;;;;;1.40;1.30;;;20.60;30.90;;;;;;5094775;28;20457;-80
2022/03/13 11:12:20;;;;;;;2.05;1.85;;;20.60;30.90;;;;;;5113187;28;20403;-80
2022/03/13 11:14:50;;;;;;;1.75;1.65;;;20.60;30.90;;;;;;5113268;28;20109;-80
2022/03/13 11:17:19;;;;;;;2.17;1.90;;;20.60;30.90;;;;;;5093665;28;20059;-80
2022/03/13 11:19:51;;;;;;;1.85;1.60;;;20.60;30.90;;;;;;5112962;28;20059;-80
2022/03/13 11:22:19;;;;;;;;;;;20.60;30.90;;;;;;5113579;28;20051;-80
2022/03/13 11:24:46;;;;;;;2.08;1.80;;;20.60;30.90;;;;;;5077867;28;19920;-80
2022/03/13 11:27:12;;;;;;;2.40;1.90;;;20.60;30.90;;;;;;5094101;28;20055;-80
2022/03/13 11:29:52;;;;;;;2.00;1.80;;;20.60;30.80;;;;;;5112895;28;20070;-80
2022/03/13 11:32:34;;;;;;;2.17;1.88;;;20.60;30.80;;;;;;5077235;28;20056;-80
2022/03/13 11:35:11;;;;;;;2.83;1.90;;;20.50;30.80;;;;;;5113228;28;20522;-80
2022/03/13 11:37:37;;;;;;;1.77;1.65;;;20.60;30.80;;;;;;5113159;28;20064;-80
2022/03/13 11:40:05;;;;;;;1.75;1.65;;;20.60;30.80;;;;;;5094806;28;20506;-80
2022/03/13 11:42:51;;;;;;;1.85;1.70;;;20.50;30.80;;;;;;5093753;28;20051;-80
2022/03/13 11:47:55;;;;;;;1.90;1.63;;;20.50;30.80;;;;;;5094538;28;20385;-80
2022/03/13 11:50:55;;;;;;;1.83;1.67;;;20.50;30.90;;;;;;5094785;28;20540;-80
2022/03/13 11:53:20;;;;;;;1.67;1.58;;;20.50;30.90;;;;;;5094930;28;20514;-80
2022/03/13 11:56:03;;;;;;;1.98;1.80;;;20.50;30.90;;;;;;5113067;28;20051;-80
2022/03/13 11:58:42;;;;;;;1.70;1.60;;;20.50;30.90;;;;;;5109558;28;20052;-80
2022/03/13 12:01:15;;;;;;;1.80;1.65;;;20.50;30.90;;;;;;5112783;28;20067;-80
2022/03/13 12:04:00;;;;;;;1.95;1.70;;;20.50;30.90;;;;;;5112860;28;20051;-79
2022/03/13 12:07:00;;;;;;;2.58;1.77;;;20.50;30.90;;;;;;5112682;28;20044;-80
2022/03/13 12:09:30;;;;;;;2.00;1.80;;;20.50;30.90;;;;;;5116492;28;20051;-80
2022/03/13 12:11:55;;;;;;;1.92;1.70;;;20.50;30.90;;;;;;5116455;28;20050;-80
2022/03/13 12:14:21;;;;;;;2.10;1.90;;;20.50;30.90;;;;;;5116372;28;20087;-80
2022/03/13 12:17:08;;;;;;;1.90;1.70;;;20.50;30.90;;;;;;5097863;28;20055;-80
2022/03/13 12:19:40;;;;;;;1.90;1.70;;;20.40;30.80;;;;;;5115870;28;20052;-79
2022/03/13 12:22:06;;;;;;;2.05;1.70;;;20.50;30.90;;;;;;5116038;28;20080;-79
2022/03/13 12:24:33;;;;;;;2.40;2.17;;;20.40;30.80;;;;;;5097943;28;20086;-80
2022/03/13 12:27:02;;;;;;;1.42;1.33;;;20.40;30.80;;;;;;5116172;28;20110;-80
2022/03/13 12:29:32;;;;;;;1.92;1.73;;;20.40;30.90;;;;;;5096906;28;20074;-80
2022/03/13 12:31:59;;;;;;;1.60;1.50;;;20.40;30.80;;;;;;5116168;28;20067;-80
2022/03/13 12:34:29;;;;;;;1.67;1.52;;;20.50;30.90;;;;;;5116105;28;20388;-80
2022/03/13 12:37:00;;;;;;;2.00;1.80;;;20.40;30.90;;;;;;5116389;28;20047;-79
2022/03/13 12:39:27;;;;;;;2.53;2.00;;;20.40;30.90;;;;;;5115950;28;20130;-79
2022/03/13 12:42:04;;;;;;;1.77;1.65;;;20.40;30.90;;;;;;5115920;28;20419;-79
2022/03/13 12:44:30;;;;;;;1.88;1.77;;;20.40;30.90;;;;;;5115810;28;20506;-80
2022/03/13 12:46:56;;;;;;;2.17;1.90;;;20.40;30.90;;;;;;5097529;28;20100;-80
2022/03/13 12:49:27;;;;;;;1.65;1.55;;;20.40;30.90;;;;;;5097459;28;20043;-80
2022/03/13 12:51:53;;;;;;;1.50;1.40;;;20.40;30.90;;;;;;5115919;28;20044;-80
2022/03/13 12:54:22;;;;;;;2.00;1.80;;;20.40;30.90;;;;;;5097292;28;20403;-80